sensor_id;sensor_type;location;lat;lon;timestamp;temperature;humidity
14705;DHT22;7442;50.840;3.396;2022-11-14T00:00:31;20.50;50.80
14705;DHT22;7442;50.840;3.396;2022-11-14T00:03:03;20.50;50.70
14705;DHT22;7442;50.840;3.396;2022-11-14T00:05:41;20.60;50.70
14705;DHT22;7442;50.840;3.396;2022-11-14T00:08:23;20.60;50.70
14705;DHT22;7442;50.840;3.396;2022-11-14T00:10:50;20.60;50.60
14705;DHT22;7442;50.840;3.396;2022-11-14T00:13:20;20.60;50.60
14705;DHT22;7442;50.840;3.396;2022-11-14T00:15:51;20.60;50.50
14705;DHT22;7442;50.840;3.396;2022-11-14T00:18:25;20.60;50.40
14705;DHT22;7442;50.840;3.396;2022-11-14T00:20:55;20.60;50.40
14705;DHT22;7442;50.840;3.396;2022-11-14T00:23:25;20.60;50.40
14705;DHT22;7442;50.840;3.396;2022-11-14T00:25:55;20.60;50.20
14705;DHT22;7442;50.840;3.396;2022-11-14T00:28:25;20.60;50.40
14705;DHT22;7442;50.840;3.396;2022-11-14T00:30:55;20.60;50.10
14705;DHT22;7442;50.840;3.396;2022-11-14T00:33:25;20.60;50.20
14705;DHT22;7442;50.840;3.396;2022-11-14T00:35:55;20.70;50.20
14705;DHT22;7442;50.840;3.396;2022-11-14T00:38:25;20.60;50.00
14705;DHT22;7442;50.840;3.396;2022-11-14T00:40:55;20.60;50.10
14705;DHT22;7442;50.840;3.396;2022-11-14T00:43:25;20.60;50.10
14705;DHT22;7442;50.840;3.396;2022-11-14T00:45:55;20.60;50.10
14705;DHT22;7442;50.840;3.396;2022-11-14T00:48:25;20.60;50.10
14705;DHT22;7442;50.840;3.396;2022-11-14T00:50:55;20.50;50.10
14705;DHT22;7442;50.840;3.396;2022-11-14T00:53:25;20.50;50.00
14705;DHT22;7442;50.840;3.396;2022-11-14T00:55:56;20.50;50.20
14705;DHT22;7442;50.840;3.396;2022-11-14T00:58:26;20.50;50.30
14705;DHT22;7442;50.840;3.396;2022-11-14T01:00:56;20.40;50.20
14705;DHT22;7442;50.840;3.396;2022-11-14T01:03:26;20.40;50.30
14705;DHT22;7442;50.840;3.396;2022-11-14T01:05:56;20.30;50.40
14705;DHT22;7442;50.840;3.396;2022-11-14T01:08:26;20.30;50.40
14705;DHT22;7442;50.840;3.396;2022-11-14T01:10:56;20.30;50.30
14705;DHT22;7442;50.840;3.396;2022-11-14T01:13:30;20.30;50.20
14705;DHT22;7442;50.840;3.396;2022-11-14T01:16:01;20.40;50.20
14705;DHT22;7442;50.840;3.396;2022-11-14T01:18:31;20.40;50.10
14705;DHT22;7442;50.840;3.396;2022-11-14T01:21:10;20.40;50.00
14705;DHT22;7442;50.840;3.396;2022-11-14T01:23:40;20.40;49.80
14705;DHT22;7442;50.840;3.396;2022-11-14T01:26:12;20.40;49.80
14705;DHT22;7442;50.840;3.396;2022-11-14T01:28:43;20.40;49.80
14705;DHT22;7442;50.840;3.396;2022-11-14T01:31:15;20.40;49.70
14705;DHT22;7442;50.840;3.396;2022-11-14T01:33:48;20.40;49.70
14705;DHT22;7442;50.840;3.396;2022-11-14T01:36:19;20.40;49.80
14705;DHT22;7442;50.840;3.396;2022-11-14T01:38:53;20.30;50.00
14705;DHT22;7442;50.840;3.396;2022-11-14T01:41:23;20.20;50.20
14705;DHT22;7442;50.840;3.396;2022-11-14T01:43:53;20.20;50.20
14705;DHT22;7442;50.840;3.396;2022-11-14T01:46:37;20.20;50.10
14705;DHT22;7442;50.840;3.396;2022-11-14T01:49:24;20.10;50.10
14705;DHT22;7442;50.840;3.396;2022-11-14T01:52:06;20.10;50.30
14705;DHT22;7442;50.840;3.396;2022-11-14T01:54:39;20.00;50.40
14705;DHT22;7442;50.840;3.396;2022-11-14T01:57:11;20.00;50.50
14705;DHT22;7442;50.840;3.396;2022-11-14T01:59:48;20.00;50.60
14705;DHT22;7442;50.840;3.396;2022-11-14T02:02:18;19.90;50.50
14705;DHT22;7442;50.840;3.396;2022-11-14T02:04:54;19.90;50.70
14705;DHT22;7442;50.840;3.396;2022-11-14T02:07:26;19.80;50.70
14705;DHT22;7442;50.840;3.396;2022-11-14T02:09:58;19.90;50.70
14705;DHT22;7442;50.840;3.396;2022-11-14T02:12:28;19.90;50.70
14705;DHT22;7442;50.840;3.396;2022-11-14T02:14:59;19.90;50.50
14705;DHT22;7442;50.840;3.396;2022-11-14T02:17:29;19.90;50.40
14705;DHT22;7442;50.840;3.396;2022-11-14T02:22:42;19.90;50.40
14705;DHT22;7442;50.840;3.396;2022-11-14T02:25:14;19.90;50.50
14705;DHT22;7442;50.840;3.396;2022-11-14T02:27:45;19.90;50.50
14705;DHT22;7442;50.840;3.396;2022-11-14T02:30:18;19.90;50.50
14705;DHT22;7442;50.840;3.396;2022-11-14T02:32:49;19.80;50.60
14705;DHT22;7442;50.840;3.396;2022-11-14T02:35:19;19.80;50.50
14705;DHT22;7442;50.840;3.396;2022-11-14T02:37:49;19.80;50.70
14705;DHT22;7442;50.840;3.396;2022-11-14T02:40:19;19.70;50.70
14705;DHT22;7442;50.840;3.396;2022-11-14T02:42:49;19.70;50.80
14705;DHT22;7442;50.840;3.396;2022-11-14T02:45:19;19.60;50.80
14705;DHT22;7442;50.840;3.396;2022-11-14T02:47:49;19.60;50.90
14705;DHT22;7442;50.840;3.396;2022-11-14T02:50:23;19.60;51.00
14705;DHT22;7442;50.840;3.396;2022-11-14T02:52:53;19.60;51.00
14705;DHT22;7442;50.840;3.396;2022-11-14T02:55:23;19.60;51.00
14705;DHT22;7442;50.840;3.396;2022-11-14T02:57:53;19.60;51.10
14705;DHT22;7442;50.840;3.396;2022-11-14T03:00:23;19.60;51.10
14705;DHT22;7442;50.840;3.396;2022-11-14T03:02:53;19.50;51.10
14705;DHT22;7442;50.840;3.396;2022-11-14T03:05:23;19.50;51.10
14705;DHT22;7442;50.840;3.396;2022-11-14T03:07:54;19.50;51.10
14705;DHT22;7442;50.840;3.396;2022-11-14T03:10:25;19.50;51.10
14705;DHT22;7442;50.840;3.396;2022-11-14T03:12:55;19.60;51.00
14705;DHT22;7442;50.840;3.396;2022-11-14T03:15:26;19.60;50.90
14705;DHT22;7442;50.840;3.396;2022-11-14T03:17:56;19.60;50.80
14705;DHT22;7442;50.840;3.396;2022-11-14T03:20:26;19.60;50.90
14705;DHT22;7442;50.840;3.396;2022-11-14T03:22:56;19.60;50.80
14705;DHT22;7442;50.840;3.396;2022-11-14T03:25:26;19.60;50.90
14705;DHT22;7442;50.840;3.396;2022-11-14T03:27:56;19.60;51.00
14705;DHT22;7442;50.840;3.396;2022-11-14T03:30:26;19.60;50.90
14705;DHT22;7442;50.840;3.396;2022-11-14T03:32:56;19.50;50.90
14705;DHT22;7442;50.840;3.396;2022-11-14T03:35:26;19.50;50.80
14705;DHT22;7442;50.840;3.396;2022-11-14T03:37:56;19.50;50.90
14705;DHT22;7442;50.840;3.396;2022-11-14T03:40:26;19.50;51.00
14705;DHT22;7442;50.840;3.396;2022-11-14T03:42:56;19.50;51.00
14705;DHT22;7442;50.840;3.396;2022-11-14T03:45:26;19.50;51.00
14705;DHT22;7442;50.840;3.396;2022-11-14T03:47:56;19.50;51.00
14705;DHT22;7442;50.840;3.396;2022-11-14T03:50:26;19.40;51.00
14705;DHT22;7442;50.840;3.396;2022-11-14T03:52:56;19.40;51.00
14705;DHT22;7442;50.840;3.396;2022-11-14T03:55:27;19.40;51.10
14705;DHT22;7442;50.840;3.396;2022-11-14T03:57:57;19.40;50.90
14705;DHT22;7442;50.840;3.396;2022-11-14T04:00:27;19.40;50.90
14705;DHT22;7442;50.840;3.396;2022-11-14T04:02:58;19.40;51.00
14705;DHT22;7442;50.840;3.396;2022-11-14T04:05:28;19.40;50.80
14705;DHT22;7442;50.840;3.396;2022-11-14T04:07:58;19.40;50.90
14705;DHT22;7442;50.840;3.396;2022-11-14T04:10:28;19.50;50.80
14705;DHT22;7442;50.840;3.396;2022-11-14T04:12:58;19.40;50.80
14705;DHT22;7442;50.840;3.396;2022-11-14T04:15:28;19.40;50.80
14705;DHT22;7442;50.840;3.396;2022-11-14T04:17:58;19.40;50.90
14705;DHT22;7442;50.840;3.396;2022-11-14T04:20:28;19.40;50.70
14705;DHT22;7442;50.840;3.396;2022-11-14T04:22:58;19.40;50.80
14705;DHT22;7442;50.840;3.396;2022-11-14T04:25:28;19.30;50.80
14705;DHT22;7442;50.840;3.396;2022-11-14T04:27:58;19.30;50.80
14705;DHT22;7442;50.840;3.396;2022-11-14T04:30:28;19.40;51.40
14705;DHT22;7442;50.840;3.396;2022-11-14T04:32:58;19.30;50.80
14705;DHT22;7442;50.840;3.396;2022-11-14T04:35:28;19.30;50.80
14705;DHT22;7442;50.840;3.396;2022-11-14T04:37:58;19.30;50.60
14705;DHT22;7442;50.840;3.396;2022-11-14T04:40:28;19.30;50.80
14705;DHT22;7442;50.840;3.396;2022-11-14T04:42:58;19.30;50.70
14705;DHT22;7442;50.840;3.396;2022-11-14T04:45:29;19.30;50.70
14705;DHT22;7442;50.840;3.396;2022-11-14T04:47:59;19.30;50.80
14705;DHT22;7442;50.840;3.396;2022-11-14T04:50:29;19.30;50.70
14705;DHT22;7442;50.840;3.396;2022-11-14T04:52:59;19.30;50.70
14705;DHT22;7442;50.840;3.396;2022-11-14T04:55:29;19.30;50.60
14705;DHT22;7442;50.840;3.396;2022-11-14T04:57:59;19.30;50.80
14705;DHT22;7442;50.840;3.396;2022-11-14T05:00:29;19.30;50.80
14705;DHT22;7442;50.840;3.396;2022-11-14T05:02:59;19.20;50.80
14705;DHT22;7442;50.840;3.396;2022-11-14T05:05:30;19.30;50.70
14705;DHT22;7442;50.840;3.396;2022-11-14T05:08:00;19.20;50.70
14705;DHT22;7442;50.840;3.396;2022-11-14T05:10:30;19.20;50.70
14705;DHT22;7442;50.840;3.396;2022-11-14T05:13:00;19.30;50.60
14705;DHT22;7442;50.840;3.396;2022-11-14T05:15:30;19.30;50.50
14705;DHT22;7442;50.840;3.396;2022-11-14T05:18:00;19.20;50.70
14705;DHT22;7442;50.840;3.396;2022-11-14T05:20:30;19.30;50.60
14705;DHT22;7442;50.840;3.396;2022-11-14T05:23:00;19.30;50.50
14705;DHT22;7442;50.840;3.396;2022-11-14T05:25:30;19.20;50.60
14705;DHT22;7442;50.840;3.396;2022-11-14T05:28:01;19.20;50.70
14705;DHT22;7442;50.840;3.396;2022-11-14T05:30:31;19.20;50.50
14705;DHT22;7442;50.840;3.396;2022-11-14T05:33:01;19.20;50.70
14705;DHT22;7442;50.840;3.396;2022-11-14T05:35:31;19.20;50.60
14705;DHT22;7442;50.840;3.396;2022-11-14T05:38:01;19.20;50.60
14705;DHT22;7442;50.840;3.396;2022-11-14T05:40:31;19.20;50.60
14705;DHT22;7442;50.840;3.396;2022-11-14T05:43:01;19.20;50.60
14705;DHT22;7442;50.840;3.396;2022-11-14T05:45:31;19.20;50.70
14705;DHT22;7442;50.840;3.396;2022-11-14T05:48:01;19.20;50.70
14705;DHT22;7442;50.840;3.396;2022-11-14T05:50:31;19.20;50.70
14705;DHT22;7442;50.840;3.396;2022-11-14T05:53:01;19.20;51.30
14705;DHT22;7442;50.840;3.396;2022-11-14T05:55:31;19.20;50.60
14705;DHT22;7442;50.840;3.396;2022-11-14T05:58:01;19.20;50.60
14705;DHT22;7442;50.840;3.396;2022-11-14T06:00:31;19.20;50.60
14705;DHT22;7442;50.840;3.396;2022-11-14T06:03:01;19.20;50.70
14705;DHT22;7442;50.840;3.396;2022-11-14T06:05:33;19.10;50.70
14705;DHT22;7442;50.840;3.396;2022-11-14T06:08:04;19.10;50.70
14705;DHT22;7442;50.840;3.396;2022-11-14T06:10:34;19.10;51.30
14705;DHT22;7442;50.840;3.396;2022-11-14T06:13:05;19.10;50.80
14705;DHT22;7442;50.840;3.396;2022-11-14T06:15:35;19.10;50.70
14705;DHT22;7442;50.840;3.396;2022-11-14T06:18:05;19.10;50.80
14705;DHT22;7442;50.840;3.396;2022-11-14T06:20:35;19.10;50.90
14705;DHT22;7442;50.840;3.396;2022-11-14T06:23:05;19.20;51.10
14705;DHT22;7442;50.840;3.396;2022-11-14T06:25:35;19.20;51.10
14705;DHT22;7442;50.840;3.396;2022-11-14T06:28:05;19.10;51.00
14705;DHT22;7442;50.840;3.396;2022-11-14T06:30:35;19.10;51.10
14705;DHT22;7442;50.840;3.396;2022-11-14T06:33:07;19.00;51.60
14705;DHT22;7442;50.840;3.396;2022-11-14T06:35:37;19.00;51.90
14705;DHT22;7442;50.840;3.396;2022-11-14T06:38:07;19.00;52.20
14705;DHT22;7442;50.840;3.396;2022-11-14T06:40:37;19.10;51.90
14705;DHT22;7442;50.840;3.396;2022-11-14T06:43:07;19.10;52.10
14705;DHT22;7442;50.840;3.396;2022-11-14T06:45:37;19.20;51.80
14705;DHT22;7442;50.840;3.396;2022-11-14T06:48:07;19.30;51.70
14705;DHT22;7442;50.840;3.396;2022-11-14T06:50:37;19.40;51.60
14705;DHT22;7442;50.840;3.396;2022-11-14T06:53:07;19.50;51.60
14705;DHT22;7442;50.840;3.396;2022-11-14T06:55:37;19.60;51.40
14705;DHT22;7442;50.840;3.396;2022-11-14T06:58:07;19.80;51.10
14705;DHT22;7442;50.840;3.396;2022-11-14T07:00:37;19.90;50.90
14705;DHT22;7442;50.840;3.396;2022-11-14T07:03:07;20.10;50.70
14705;DHT22;7442;50.840;3.396;2022-11-14T07:05:37;20.20;50.50
14705;DHT22;7442;50.840;3.396;2022-11-14T07:08:07;20.30;50.20
14705;DHT22;7442;50.840;3.396;2022-11-14T07:10:38;20.40;50.10
14705;DHT22;7442;50.840;3.396;2022-11-14T07:13:08;20.50;49.90
14705;DHT22;7442;50.840;3.396;2022-11-14T07:15:49;20.60;49.80
14705;DHT22;7442;50.840;3.396;2022-11-14T07:18:19;20.70;49.60
14705;DHT22;7442;50.840;3.396;2022-11-14T07:20:55;20.80;49.50
14705;DHT22;7442;50.840;3.396;2022-11-14T07:23:21;21.00;49.10
14705;DHT22;7442;50.840;3.396;2022-11-14T07:25:51;21.10;48.90
14705;DHT22;7442;50.840;3.396;2022-11-14T07:28:21;21.20;48.90
14705;DHT22;7442;50.840;3.396;2022-11-14T07:30:52;21.40;48.50
14705;DHT22;7442;50.840;3.396;2022-11-14T07:33:22;21.50;48.20
14705;DHT22;7442;50.840;3.396;2022-11-14T07:35:52;21.60;47.90
14705;DHT22;7442;50.840;3.396;2022-11-14T07:38:22;21.70;47.80
14705;DHT22;7442;50.840;3.396;2022-11-14T07:41:05;21.80;47.60
14705;DHT22;7442;50.840;3.396;2022-11-14T07:43:31;21.80;47.40
14705;DHT22;7442;50.840;3.396;2022-11-14T07:46:04;21.80;47.20
14705;DHT22;7442;50.840;3.396;2022-11-14T07:48:34;21.80;47.50
14705;DHT22;7442;50.840;3.396;2022-11-14T07:51:09;21.80;47.60
14705;DHT22;7442;50.840;3.396;2022-11-14T07:53:38;21.90;47.50
14705;DHT22;7442;50.840;3.396;2022-11-14T07:56:08;21.90;47.50
14705;DHT22;7442;50.840;3.396;2022-11-14T07:58:39;22.00;47.50
14705;DHT22;7442;50.840;3.396;2022-11-14T08:01:11;22.10;47.20
14705;DHT22;7442;50.840;3.396;2022-11-14T08:03:42;22.10;47.20
14705;DHT22;7442;50.840;3.396;2022-11-14T08:06:14;21.90;47.40
14705;DHT22;7442;50.840;3.396;2022-11-14T08:08:44;21.90;47.60
14705;DHT22;7442;50.840;3.396;2022-11-14T08:11:14;21.80;47.70
14705;DHT22;7442;50.840;3.396;2022-11-14T08:13:47;21.80;47.70
14705;DHT22;7442;50.840;3.396;2022-11-14T08:16:18;21.80;47.80
14705;DHT22;7442;50.840;3.396;2022-11-14T08:18:48;21.70;48.20
14705;DHT22;7442;50.840;3.396;2022-11-14T08:21:18;21.70;48.00
14705;DHT22;7442;50.840;3.396;2022-11-14T08:23:48;21.70;48.20
14705;DHT22;7442;50.840;3.396;2022-11-14T08:26:18;21.60;48.10
14705;DHT22;7442;50.840;3.396;2022-11-14T08:28:52;21.60;48.00
14705;DHT22;7442;50.840;3.396;2022-11-14T08:31:23;21.50;48.20
14705;DHT22;7442;50.840;3.396;2022-11-14T08:33:53;21.50;48.50
14705;DHT22;7442;50.840;3.396;2022-11-14T08:36:23;21.40;48.00
14705;DHT22;7442;50.840;3.396;2022-11-14T08:38:53;21.30;47.70
14705;DHT22;7442;50.840;3.396;2022-11-14T08:41:23;21.30;48.10
14705;DHT22;7442;50.840;3.396;2022-11-14T08:43:53;21.30;48.30
14705;DHT22;7442;50.840;3.396;2022-11-14T08:46:23;21.20;48.80
14705;DHT22;7442;50.840;3.396;2022-11-14T08:48:53;21.20;48.80
14705;DHT22;7442;50.840;3.396;2022-11-14T08:51:23;21.20;49.00
14705;DHT22;7442;50.840;3.396;2022-11-14T08:53:54;21.20;49.00
14705;DHT22;7442;50.840;3.396;2022-11-14T08:56:24;21.20;48.90
14705;DHT22;7442;50.840;3.396;2022-11-14T08:58:54;21.30;49.40
14705;DHT22;7442;50.840;3.396;2022-11-14T09:01:24;21.30;49.60
14705;DHT22;7442;50.840;3.396;2022-11-14T09:03:54;21.20;49.90
14705;DHT22;7442;50.840;3.396;2022-11-14T09:06:24;21.20;49.80
14705;DHT22;7442;50.840;3.396;2022-11-14T09:08:54;21.10;49.60
14705;DHT22;7442;50.840;3.396;2022-11-14T09:11:24;21.20;49.70
14705;DHT22;7442;50.840;3.396;2022-11-14T09:13:54;21.30;49.20
14705;DHT22;7442;50.840;3.396;2022-11-14T09:16:24;21.40;49.10
14705;DHT22;7442;50.840;3.396;2022-11-14T09:18:55;21.40;49.10
14705;DHT22;7442;50.840;3.396;2022-11-14T09:21:25;21.40;49.00
14705;DHT22;7442;50.840;3.396;2022-11-14T09:23:55;21.40;49.10
14705;DHT22;7442;50.840;3.396;2022-11-14T09:26:25;21.40;49.00
14705;DHT22;7442;50.840;3.396;2022-11-14T09:28:55;21.50;48.80
14705;DHT22;7442;50.840;3.396;2022-11-14T09:31:25;21.40;49.50
14705;DHT22;7442;50.840;3.396;2022-11-14T09:33:55;21.20;49.40
14705;DHT22;7442;50.840;3.396;2022-11-14T09:36:25;21.20;49.50
14705;DHT22;7442;50.840;3.396;2022-11-14T09:38:55;21.20;50.10
14705;DHT22;7442;50.840;3.396;2022-11-14T09:45:03;21.40;48.70
14705;DHT22;7442;50.840;3.396;2022-11-14T09:47:00;21.40;48.90
14705;DHT22;7442;50.840;3.396;2022-11-14T09:49:33;21.20;49.00
14705;DHT22;7442;50.840;3.396;2022-11-14T09:54:58;21.00;48.90
14705;DHT22;7442;50.840;3.396;2022-11-14T09:57:29;21.00;49.20
14705;DHT22;7442;50.840;3.396;2022-11-14T09:59:59;21.00;49.50
14705;DHT22;7442;50.840;3.396;2022-11-14T10:02:46;20.90;49.50
14705;DHT22;7442;50.840;3.396;2022-11-14T10:05:28;20.90;50.10
14705;DHT22;7442;50.840;3.396;2022-11-14T10:08:13;21.00;50.50
14705;DHT22;7442;50.840;3.396;2022-11-14T10:13:37;20.90;51.20
14705;DHT22;7442;50.840;3.396;2022-11-14T10:16:34;20.90;51.10
14705;DHT22;7442;50.840;3.396;2022-11-14T10:21:55;20.80;51.40
14705;DHT22;7442;50.840;3.396;2022-11-14T10:24:40;20.80;51.10
14705;DHT22;7442;50.840;3.396;2022-11-14T10:27:19;20.80;51.20
14705;DHT22;7442;50.840;3.396;2022-11-14T10:32:46;20.70;51.20
14705;DHT22;7442;50.840;3.396;2022-11-14T10:35:19;20.70;51.10
14705;DHT22;7442;50.840;3.396;2022-11-14T10:40:59;20.90;50.80
14705;DHT22;7442;50.840;3.396;2022-11-14T10:43:45;20.90;50.70
14705;DHT22;7442;50.840;3.396;2022-11-14T10:46:21;20.80;50.40
14705;DHT22;7442;50.840;3.396;2022-11-14T10:48:51;20.70;50.90
14705;DHT22;7442;50.840;3.396;2022-11-14T10:56:51;20.80;50.50
14705;DHT22;7442;50.840;3.396;2022-11-14T10:59:21;20.70;50.70
14705;DHT22;7442;50.840;3.396;2022-11-14T11:01:57;20.60;51.30
14705;DHT22;7442;50.840;3.396;2022-11-14T11:04:35;20.60;51.50
14705;DHT22;7442;50.840;3.396;2022-11-14T11:09:45;20.60;51.50
14705;DHT22;7442;50.840;3.396;2022-11-14T11:18:02;20.70;50.90
14705;DHT22;7442;50.840;3.396;2022-11-14T11:20:36;20.60;51.60
14705;DHT22;7442;50.840;3.396;2022-11-14T11:25:42;20.80;50.90
14705;DHT22;7442;50.840;3.396;2022-11-14T11:28:17;20.80;50.70
14705;DHT22;7442;50.840;3.396;2022-11-14T11:31:10;20.70;51.00
14705;DHT22;7442;50.840;3.396;2022-11-14T11:33:37;20.70;51.00
14705;DHT22;7442;50.840;3.396;2022-11-14T11:36:13;20.80;51.00
14705;DHT22;7442;50.840;3.396;2022-11-14T11:38:45;20.80;50.80
14705;DHT22;7442;50.840;3.396;2022-11-14T11:41:28;20.90;50.90
14705;DHT22;7442;50.840;3.396;2022-11-14T11:44:00;21.00;50.80
14705;DHT22;7442;50.840;3.396;2022-11-14T11:46:51;21.20;50.30
14705;DHT22;7442;50.840;3.396;2022-11-14T11:49:40;21.30;50.30
14705;DHT22;7442;50.840;3.396;2022-11-14T11:52:30;21.30;50.00
14705;DHT22;7442;50.840;3.396;2022-11-14T11:55:19;21.50;49.80
14705;DHT22;7442;50.840;3.396;2022-11-14T12:00:30;21.40;49.70
14705;DHT22;7442;50.840;3.396;2022-11-14T12:03:01;21.30;49.90
14705;DHT22;7442;50.840;3.396;2022-11-14T12:10:56;21.20;50.30
14705;DHT22;7442;50.840;3.396;2022-11-14T12:24:44;21.20;50.30
14705;DHT22;7442;50.840;3.396;2022-11-14T12:27:34;21.20;50.40
14705;DHT22;7442;50.840;3.396;2022-11-14T12:30:07;21.20;50.30
14705;DHT22;7442;50.840;3.396;2022-11-14T12:32:42;21.10;50.50
14705;DHT22;7442;50.840;3.396;2022-11-14T12:35:25;21.10;50.60
14705;DHT22;7442;50.840;3.396;2022-11-14T12:37:56;21.10;50.60
14705;DHT22;7442;50.840;3.396;2022-11-14T12:40:36;21.10;50.60
14705;DHT22;7442;50.840;3.396;2022-11-14T12:43:25;21.10;50.60
14705;DHT22;7442;50.840;3.396;2022-11-14T12:45:59;21.20;50.30
14705;DHT22;7442;50.840;3.396;2022-11-14T12:48:32;21.10;50.20
14705;DHT22;7442;50.840;3.396;2022-11-14T12:51:04;21.10;50.20
14705;DHT22;7442;50.840;3.396;2022-11-14T12:53:36;21.10;50.20
14705;DHT22;7442;50.840;3.396;2022-11-14T12:59:16;21.10;50.00
14705;DHT22;7442;50.840;3.396;2022-11-14T13:02:04;21.10;50.30
14705;DHT22;7442;50.840;3.396;2022-11-14T13:04:58;21.20;50.10
14705;DHT22;7442;50.840;3.396;2022-11-14T13:10:11;21.20;49.90
14705;DHT22;7442;50.840;3.396;2022-11-14T13:13:28;21.10;50.00
14705;DHT22;7442;50.840;3.396;2022-11-14T13:15:34;21.00;50.50
14705;DHT22;7442;50.840;3.396;2022-11-14T13:18:25;20.90;50.50
14705;DHT22;7442;50.840;3.396;2022-11-14T13:21:28;20.80;50.60
14705;DHT22;7442;50.840;3.396;2022-11-14T13:24:18;20.80;50.50
14705;DHT22;7442;50.840;3.396;2022-11-14T13:26:50;20.80;50.50
14705;DHT22;7442;50.840;3.396;2022-11-14T13:35:45;20.80;50.60
14705;DHT22;7442;50.840;3.396;2022-11-14T13:38:27;21.00;50.30
14705;DHT22;7442;50.840;3.396;2022-11-14T13:46:39;21.40;49.00
14705;DHT22;7442;50.840;3.396;2022-11-14T13:49:22;21.40;49.40
14705;DHT22;7442;50.840;3.396;2022-11-14T13:51:52;21.40;49.20
14705;DHT22;7442;50.840;3.396;2022-11-14T13:54:22;21.30;49.30
14705;DHT22;7442;50.840;3.396;2022-11-14T13:57:03;21.30;49.30
14705;DHT22;7442;50.840;3.396;2022-11-14T13:59:48;21.20;49.50
14705;DHT22;7442;50.840;3.396;2022-11-14T14:02:46;21.20;49.50
14705;DHT22;7442;50.840;3.396;2022-11-14T14:08:19;21.30;49.20
14705;DHT22;7442;50.840;3.396;2022-11-14T14:19:16;21.40;49.10
14705;DHT22;7442;50.840;3.396;2022-11-14T14:22:06;21.40;49.10
14705;DHT22;7442;50.840;3.396;2022-11-14T14:27:19;21.40;49.50
14705;DHT22;7442;50.840;3.396;2022-11-14T14:29:57;21.30;49.30
14705;DHT22;7442;50.840;3.396;2022-11-14T14:32:26;21.30;49.20
14705;DHT22;7442;50.840;3.396;2022-11-14T14:34:56;21.30;49.30
14705;DHT22;7442;50.840;3.396;2022-11-14T14:37:28;21.40;49.00
14705;DHT22;7442;50.840;3.396;2022-11-14T14:40:04;21.30;49.20
14705;DHT22;7442;50.840;3.396;2022-11-14T14:42:39;21.30;49.20
14705;DHT22;7442;50.840;3.396;2022-11-14T14:45:18;21.20;49.50
14705;DHT22;7442;50.840;3.396;2022-11-14T14:47:50;21.20;49.70
14705;DHT22;7442;50.840;3.396;2022-11-14T14:50:23;21.10;49.70
14705;DHT22;7442;50.840;3.396;2022-11-14T14:52:57;21.10;49.60
14705;DHT22;7442;50.840;3.396;2022-11-14T14:55:29;21.10;49.70
14705;DHT22;7442;50.840;3.396;2022-11-14T15:01:05;21.10;49.60
14705;DHT22;7442;50.840;3.396;2022-11-14T15:03:50;21.10;49.50
14705;DHT22;7442;50.840;3.396;2022-11-14T15:06:32;21.10;49.60
14705;DHT22;7442;50.840;3.396;2022-11-14T15:09:20;21.00;49.50
14705;DHT22;7442;50.840;3.396;2022-11-14T15:11:52;21.00;50.40
14705;DHT22;7442;50.840;3.396;2022-11-14T15:14:26;21.00;49.60
14705;DHT22;7442;50.840;3.396;2022-11-14T15:16:58;21.00;49.80
14705;DHT22;7442;50.840;3.396;2022-11-14T15:19:39;20.90;49.60
14705;DHT22;7442;50.840;3.396;2022-11-14T15:27:48;20.80;49.90
14705;DHT22;7442;50.840;3.396;2022-11-14T15:30:24;20.90;49.80
14705;DHT22;7442;50.840;3.396;2022-11-14T15:32:57;20.80;49.70
14705;DHT22;7442;50.840;3.396;2022-11-14T15:35:35;20.80;49.80
14705;DHT22;7442;50.840;3.396;2022-11-14T15:46:42;20.80;49.80
14705;DHT22;7442;50.840;3.396;2022-11-14T15:49:28;20.80;49.70
14705;DHT22;7442;50.840;3.396;2022-11-14T15:51:59;20.80;49.80
14705;DHT22;7442;50.840;3.396;2022-11-14T15:54:32;20.80;49.70
14705;DHT22;7442;50.840;3.396;2022-11-14T15:57:14;20.70;49.80
14705;DHT22;7442;50.840;3.396;2022-11-14T15:59:46;20.70;49.90
14705;DHT22;7442;50.840;3.396;2022-11-14T16:02:29;20.70;49.80
14705;DHT22;7442;50.840;3.396;2022-11-14T16:04:50;20.70;49.70
14705;DHT22;7442;50.840;3.396;2022-11-14T16:07:21;20.60;50.50
14705;DHT22;7442;50.840;3.396;2022-11-14T16:09:52;20.60;50.00
14705;DHT22;7442;50.840;3.396;2022-11-14T16:12:23;20.60;50.00
14705;DHT22;7442;50.840;3.396;2022-11-14T16:14:53;20.50;50.10
14705;DHT22;7442;50.840;3.396;2022-11-14T16:17:23;20.60;50.10
14705;DHT22;7442;50.840;3.396;2022-11-14T16:19:53;20.60;49.90
14705;DHT22;7442;50.840;3.396;2022-11-14T16:22:23;20.60;50.00
14705;DHT22;7442;50.840;3.396;2022-11-14T16:24:58;20.50;50.00
14705;DHT22;7442;50.840;3.396;2022-11-14T16:27:28;20.60;50.00
14705;DHT22;7442;50.840;3.396;2022-11-14T16:29:58;20.60;50.00
14705;DHT22;7442;50.840;3.396;2022-11-14T16:32:28;20.50;50.10
14705;DHT22;7442;50.840;3.396;2022-11-14T16:34:58;20.50;50.10
14705;DHT22;7442;50.840;3.396;2022-11-14T16:37:28;20.50;50.10
14705;DHT22;7442;50.840;3.396;2022-11-14T16:39:59;20.50;50.20
14705;DHT22;7442;50.840;3.396;2022-11-14T16:42:29;20.40;50.10
14705;DHT22;7442;50.840;3.396;2022-11-14T16:44:59;20.40;50.10
14705;DHT22;7442;50.840;3.396;2022-11-14T16:47:30;20.50;50.10
14705;DHT22;7442;50.840;3.396;2022-11-14T16:50:00;20.40;50.20
14705;DHT22;7442;50.840;3.396;2022-11-14T16:52:31;20.40;50.20
14705;DHT22;7442;50.840;3.396;2022-11-14T16:55:01;20.40;50.30
14705;DHT22;7442;50.840;3.396;2022-11-14T16:57:31;20.40;50.20
14705;DHT22;7442;50.840;3.396;2022-11-14T17:00:03;20.40;50.30
14705;DHT22;7442;50.840;3.396;2022-11-14T17:02:33;20.40;50.30
14705;DHT22;7442;50.840;3.396;2022-11-14T17:05:03;20.40;50.10
14705;DHT22;7442;50.840;3.396;2022-11-14T17:07:34;20.40;49.60
14705;DHT22;7442;50.840;3.396;2022-11-14T17:10:05;20.40;49.60
14705;DHT22;7442;50.840;3.396;2022-11-14T17:12:35;20.40;49.80
14705;DHT22;7442;50.840;3.396;2022-11-14T17:15:06;20.40;49.60
14705;DHT22;7442;50.840;3.396;2022-11-14T17:17:36;20.40;49.50
14705;DHT22;7442;50.840;3.396;2022-11-14T17:20:06;20.40;49.50
14705;DHT22;7442;50.840;3.396;2022-11-14T17:22:37;20.30;49.50
14705;DHT22;7442;50.840;3.396;2022-11-14T17:25:07;20.30;49.50
14705;DHT22;7442;50.840;3.396;2022-11-14T17:27:37;20.30;49.90
14705;DHT22;7442;50.840;3.396;2022-11-14T17:30:14;20.30;49.60
14705;DHT22;7442;50.840;3.396;2022-11-14T17:32:40;20.40;49.70
14705;DHT22;7442;50.840;3.396;2022-11-14T17:35:11;20.30;49.70
14705;DHT22;7442;50.840;3.396;2022-11-14T17:37:41;20.30;49.80
14705;DHT22;7442;50.840;3.396;2022-11-14T17:40:12;20.30;49.80
14705;DHT22;7442;50.840;3.396;2022-11-14T17:42:42;20.30;50.90
14705;DHT22;7442;50.840;3.396;2022-11-14T17:45:12;20.40;50.30
14705;DHT22;7442;50.840;3.396;2022-11-14T17:47:42;20.40;50.30
14705;DHT22;7442;50.840;3.396;2022-11-14T17:50:12;20.40;50.40
14705;DHT22;7442;50.840;3.396;2022-11-14T17:52:42;20.30;50.70
14705;DHT22;7442;50.840;3.396;2022-11-14T17:55:12;20.30;50.50
14705;DHT22;7442;50.840;3.396;2022-11-14T17:57:42;20.30;50.60
14705;DHT22;7442;50.840;3.396;2022-11-14T18:00:13;20.20;50.90
14705;DHT22;7442;50.840;3.396;2022-11-14T18:02:43;20.20;51.20